Time;durP1;ratioP1;P1;durP2;ratioP2;P2;SDS_P1;SDS_P2;PMS_P1;PMS_P2;Temp;Humidity;BMP_temperature;BMP_pressure;BME280_temperature;BME280_humidity;BME280_pressure;Samples;Min_cycle;Max_cycle;Signal;HPM_P1;HPM_P2
2023/11/25 00:00:06;;;;;;;;;;;;;;;20.65;45.95;99473.81;2089980;28;1882;-70
2023/11/25 00:01:07;;;;;;;;;;;;;;;20.65;46.04;99478.84;2091310;28;1775;-71
2023/11/25 00:02:09;;;;;;;;;;;;;;;20.65;45.97;99473.09;2091182;28;1775;-71
2023/11/25 00:03:10;;;;;;;;;;;;;;;20.65;46.05;99484.59;2092145;28;1927;-71
2023/11/25 00:04:12;;;;;;;;;;;;;;;20.65;45.95;99484.59;2090283;28;2013;-71
2023/11/25 00:05:14;;;;;;;;;;;;;;;20.64;45.99;99474.53;2090107;28;1748;-71
2023/11/25 00:06:15;;;;;;;;;;;;;;;20.63;46.14;99478.78;2089299;28;1528;-71
2023/11/25 00:07:16;;;;;;;;;;;;;;;20.63;46.05;99487.41;2088571;28;2076;-71
2023/11/25 00:08:19;;;;;;;;;;;;;;;20.63;46.06;99490.31;2093305;28;1977;-71
2023/11/25 00:09:21;;;;;;;;;;;;;;;20.64;45.98;99494.66;2094839;28;1886;-71
2023/11/25 00:10:22;;;;;;;;;;;;;;;20.62;46.04;99497.47;2091654;28;1809;-71
2023/11/25 00:11:24;;;;;;;;;;;;;;;20.61;45.83;99502.47;2091208;28;1825;-71
2023/11/25 00:12:30;;;;;;;;;;;;;;;20.61;45.84;99490.25;2088781;28;1722;-71
2023/11/25 00:13:31;;;;;;;;;;;;;;;20.61;45.89;99496.00;2089463;28;1806;-70
2023/11/25 00:14:33;;;;;;;;;;;;;;;20.62;46.02;99503.22;2089745;28;2012;-71
2023/11/25 00:15:35;;;;;;;;;;;;;;;20.60;46.08;99503.19;2092942;28;1969;-71
2023/11/25 00:16:36;;;;;;;;;;;;;;;20.61;46.02;99504.63;2091515;28;1774;-71
2023/11/25 00:17:38;;;;;;;;;;;;;;;20.61;45.81;99507.50;2090736;28;1790;-71
2023/11/25 00:18:39;;;;;;;;;;;;;;;20.60;45.91;99506.78;2091322;28;1820;-70
2023/11/25 00:19:40;;;;;;;;;;;;;;;20.61;45.98;99508.22;2089416;28;1626;-71
2023/11/25 00:20:42;;;;;;;;;;;;;;;20.60;46.03;99503.91;2090939;28;1799;-71
2023/11/25 00:21:43;;;;;;;;;;;;;;;20.61;46.12;99516.13;2091979;28;1814;-71
2023/11/25 00:22:45;;;;;;;;;;;;;;;20.62;46.08;99508.97;2093600;28;1584;-70
2023/11/25 00:23:47;;;;;;;;;;;;;;;20.61;46.03;99513.97;2090117;28;2028;-71
2023/11/25 00:24:48;;;;;;;;;;;;;;;20.61;45.90;99519.00;2089909;28;1591;-71
2023/11/25 00:25:53;;;;;;;;;;;;;;;20.61;45.86;99513.97;2089646;28;1830;-71
2023/11/25 00:26:54;;;;;;;;;;;;;;;20.61;46.08;99519.72;2090523;28;1862;-71
2023/11/25 00:27:55;;;;;;;;;;;;;;;20.62;46.08;99526.25;2091110;28;1845;-71
2023/11/25 00:28:57;;;;;;;;;;;;;;;20.60;45.99;99529.78;2089307;28;1993;-72
2023/11/25 00:29:58;;;;;;;;;;;;;;;20.62;46.07;99526.25;2089837;28;1892;-71
2023/11/25 00:31:00;;;;;;;;;;;;;;;20.62;46.00;99534.88;2090453;28;1894;-71
2023/11/25 00:32:02;;;;;;;;;;;;;;;20.63;45.94;99537.03;2091599;28;1805;-71
2023/11/25 00:33:04;;;;;;;;;;;;;;;20.63;45.98;99539.19;2094735;28;1955;-70
2023/11/25 00:34:05;;;;;;;;;;;;;;;20.64;45.99;99543.53;2090345;28;1896;-71
2023/11/25 00:35:07;;;;;;;;;;;;;;;20.63;46.08;99534.16;2091489;28;2009;-71
2023/11/25 00:36:08;;;;;;;;;;;;;;;20.63;46.09;99534.16;2091791;28;1617;-72
2023/11/25 00:37:10;;;;;;;;;;;;;;;20.63;46.14;99545.66;2092295;28;1825;-71
2023/11/25 00:38:11;;;;;;;;;;;;;;;20.63;46.03;99539.19;2091317;28;1830;-71
2023/11/25 00:39:15;;;;;;;;;;;;;;;20.63;46.08;99542.06;2091280;28;1565;-71
2023/11/25 00:40:16;;;;;;;;;;;;;;;20.62;46.24;99543.50;2093045;28;1930;-71
2023/11/25 00:41:18;;;;;;;;;;;;;;;20.61;46.07;99548.50;2092312;28;1699;-71
2023/11/25 00:42:21;;;;;;;;;;;;;;;20.61;45.87;99544.88;2091950;28;2055;-71
2023/11/25 00:43:22;;;;;;;;;;;;;;;20.62;46.12;99555.00;2089012;28;1871;-75
2023/11/25 00:44:24;;;;;;;;;;;;;;;20.61;46.04;99550.66;2089147;28;1846;-70
2023/11/25 00:45:26;;;;;;;;;;;;;;;20.61;45.99;99547.78;2092769;28;1710;-67
2023/11/25 00:46:28;;;;;;;;;;;;;;;20.60;46.13;99558.53;2090372;28;1830;-70
2023/11/25 00:47:30;;;;;;;;;;;;;;;20.60;45.97;99564.28;2090540;28;2013;-70
2023/11/25 00:48:35;;;;;;;;;;;;;;;20.60;46.14;99563.56;2088018;28;1867;-70
2023/11/25 00:49:38;;;;;;;;;;;;;;;20.62;46.05;99566.50;2089859;28;2004;-70
2023/11/25 00:50:39;;;;;;;;;;;;;;;20.60;45.99;99563.56;2093002;28;1900;-71
2023/11/25 00:51:41;;;;;;;;;;;;;;;20.60;46.08;99572.19;2089245;28;1920;-70
2023/11/25 00:52:43;;;;;;;;;;;;;;;20.60;46.00;99575.06;2092099;28;1863;-70
2023/11/25 00:53:44;;;;;;;;;;;;;;;20.59;45.88;99576.47;2092655;28;1779;-70
2023/11/25 00:54:46;;;;;;;;;;;;;;;20.59;46.11;99580.09;2089404;28;1869;-70
2023/11/25 00:55:47;;;;;;;;;;;;;;;20.59;45.95;99567.84;2091360;28;2274;-70
2023/11/25 00:56:49;;;;;;;;;;;;;;;20.59;45.94;99576.47;2090182;28;1887;-70
2023/11/25 00:57:51;;;;;;;;;;;;;;;20.58;46.12;99578.63;2090968;28;1631;-70
2023/11/25 00:58:52;;;;;;;;;;;;;;;20.58;45.87;99572.16;2091190;28;1884;-70
2023/11/25 00:59:54;;;;;;;;;;;;;;;20.57;46.14;99579.28;2089555;28;1980;-70
2023/11/25 01:00:55;;;;;;;;;;;;;;;20.57;46.08;99577.19;2091297;28;1966;-71
2023/11/25 01:01:56;;;;;;;;;;;;;;;20.56;46.00;99580.69;2088416;28;1825;-70
2023/11/25 01:02:58;;;;;;;;;;;;;;;20.56;46.13;99569.94;2090000;28;1997;-70
2023/11/25 01:03:59;;;;;;;;;;;;;;;20.56;46.15;99580.69;2090824;28;1947;-70
2023/11/25 01:05:01;;;;;;;;;;;;;;;20.57;45.94;99576.41;2092408;28;1885;-71
2023/11/25 01:06:09;;;;;;;;;;;;;;;20.58;45.95;99577.91;2091710;28;1555;-70
2023/11/25 01:07:10;;;;;;;;;;;;;;;20.57;46.00;99579.28;2092082;28;1911;-70
2023/11/25 01:08:11;;;;;;;;;;;;;;;20.55;46.09;99582.09;2093925;28;1794;-70
2023/11/25 01:09:16;;;;;;;;;;;;;;;20.57;46.12;99582.16;2090309;28;1910;-71
2023/11/25 01:10:17;;;;;;;;;;;;;;;20.57;45.95;99582.16;2089814;28;1873;-70
2023/11/25 01:11:19;;;;;;;;;;;;;;;20.58;46.09;99589.41;2092390;28;1877;-70
2023/11/25 01:12:20;;;;;;;;;;;;;;;20.58;45.93;99589.41;2089200;28;1831;-70
2023/11/25 01:13:22;;;;;;;;;;;;;;;20.59;46.09;99599.47;2089339;28;1998;-70
2023/11/25 01:14:23;;;;;;;;;;;;;;;20.57;46.01;99600.19;2090334;28;1963;-71
2023/11/25 01:15:25;;;;;;;;;;;;;;;20.58;45.90;99595.88;2088916;28;1811;-70
2023/11/25 01:16:26;;;;;;;;;;;;;;;20.57;45.89;99599.44;2091975;28;1675;-69
2023/11/25 01:17:29;;;;;;;;;;;;;;;20.58;46.10;99600.91;2090326;28;1840;-70
2023/11/25 01:18:31;;;;;;;;;;;;;;;20.59;46.04;99602.34;2089547;28;2014;-71
2023/11/25 01:19:32;;;;;;;;;;;;;;;20.59;46.13;99608.09;2090211;28;1991;-70
2023/11/25 01:20:34;;;;;;;;;;;;;;;20.60;46.21;99606.72;2088454;28;2007;-70
2023/11/25 01:21:35;;;;;;;;;;;;;;;20.59;46.11;99606.00;2088142;28;1981;-70
2023/11/25 01:22:37;;;;;;;;;;;;;;;20.58;46.03;99604.50;2093218;28;2143;-70
2023/11/25 01:23:38;;;;;;;;;;;;;;;20.58;46.18;99603.78;2093557;28;1893;-70
2023/11/25 01:24:40;;;;;;;;;;;;;;;20.59;46.19;99608.09;2091462;28;1852;-68
2023/11/25 01:25:41;;;;;;;;;;;;;;;20.58;46.19;99606.66;2093965;28;1822;-70
2023/11/25 01:26:43;;;;;;;;;;;;;;;20.56;45.98;99615.19;2091147;28;1849;-70
2023/11/25 01:27:44;;;;;;;;;;;;;;;20.56;46.22;99615.94;2094314;28;1740;-70
2023/11/25 01:28:47;;;;;;;;;;;;;;;20.55;45.95;99617.34;2088997;28;1655;-70
2023/11/25 01:29:48;;;;;;;;;;;;;;;20.57;46.07;99622.44;2087844;28;1971;-70
2023/11/25 01:30:50;;;;;;;;;;;;;;;20.56;46.17;99620.94;2089307;28;1928;-70
2023/11/25 01:31:51;;;;;;;;;;;;;;;20.57;46.06;99625.31;2091482;28;1944;-70
2023/11/25 01:32:54;;;;;;;;;;;;;;;20.56;45.94;99615.94;2089079;28;1887;-70
2023/11/25 01:33:57;;;;;;;;;;;;;;;20.56;46.05;99627.47;2091548;28;1796;-70
2023/11/25 01:34:58;;;;;;;;;;;;;;;20.56;46.00;99641.09;2092438;28;1860;-70
2023/11/25 01:36:00;;;;;;;;;;;;;;;20.55;46.09;99639.59;2089941;28;1942;-70
2023/11/25 01:37:01;;;;;;;;;;;;;;;20.55;45.94;99642.47;2090713;28;1957;-70
2023/11/25 01:38:03;;;;;;;;;;;;;;;20.56;46.00;99641.09;2089648;28;1888;-70
2023/11/25 01:39:07;;;;;;;;;;;;;;;20.53;45.96;99642.44;2089536;28;1915;-69
2023/11/25 01:40:11;;;;;;;;;;;;;;;20.54;46.12;99643.91;2091420;28;1896;-70
2023/11/25 01:41:13;;;;;;;;;;;;;;;20.53;46.10;99642.44;2092021;28;1801;-70
2023/11/25 01:42:14;;;;;;;;;;;;;;;20.53;45.92;99646.06;2089470;28;1933;-70
2023/11/25 01:43:15;;;;;;;;;;;;;;;20.53;46.07;99651.81;2092907;28;1868;-70
2023/11/25 01:44:17;;;;;;;;;;;;;;;20.53;45.94;99648.94;2090405;28;2199;-70
2023/11/25 01:45:18;;;;;;;;;;;;;;;20.55;46.11;99648.22;2093853;28;2386;-70
2023/11/25 01:46:36;;;;;;;;;;;;;;;20.54;46.14;99652.53;2088300;28;1817;-71
2023/11/25 01:47:38;;;;;;;;;;;;;;;20.54;46.17;99655.41;2090375;28;1999;-70
2023/11/25 01:48:39;;;;;;;;;;;;;;;20.53;46.06;99651.06;2089313;28;2006;-70
2023/11/25 01:49:41;;;;;;;;;;;;;;;20.55;46.01;99654.72;2091839;28;2135;-71
2023/11/25 01:50:47;;;;;;;;;;;;;;;20.55;46.17;99651.09;2089361;28;2001;-70
2023/11/25 01:51:49;;;;;;;;;;;;;;;20.55;45.89;99659.72;2090798;28;1849;-70
2023/11/25 01:52:50;;;;;;;;;;;;;;;20.56;45.95;99649.72;2099357;28;1931;-70
2023/11/25 01:53:51;;;;;;;;;;;;;;;20.56;45.92;99649.72;2100039;28;1919;-71
2023/11/25 01:54:53;;;;;;;;;;;;;;;20.56;46.07;99646.84;2092303;28;1851;-71
2023/11/25 01:55:54;;;;;;;;;;;;;;;20.56;46.05;99649.72;2089008;28;1774;-70
2023/11/25 01:56:56;;;;;;;;;;;;;;;20.55;45.94;99654.72;2093432;28;1925;-69
2023/11/25 01:57:58;;;;;;;;;;;;;;;20.55;46.05;99648.22;2091699;28;1928;-70
2023/11/25 01:59:01;;;;;;;;;;;;;;;20.55;45.99;99636.72;2088688;28;1925;-70
2023/11/25 02:00:07;;;;;;;;;;;;;;;20.53;46.00;99637.44;2090916;28;1903;-70
2023/11/25 02:01:09;;;;;;;;;;;;;;;20.53;46.07;99637.44;2088908;28;1990;-70
2023/11/25 02:02:11;;;;;;;;;;;;;;;20.53;46.02;99643.19;2090749;28;1904;-70
2023/11/25 02:03:13;;;;;;;;;;;;;;;20.55;46.20;99642.47;2091389;28;1981;-71
2023/11/25 02:04:14;;;;;;;;;;;;;;;20.55;46.22;99646.09;2089838;28;2027;-70
2023/11/25 02:05:16;;;;;;;;;;;;;;;20.53;46.04;99642.44;2090658;28;1797;-70
2023/11/25 02:06:19;;;;;;;;;;;;;;;20.54;46.07;99641.03;2092156;28;1719;-70
2023/11/25 02:07:21;;;;;;;;;;;;;;;20.53;46.31;99636.69;2088288;28;1904;-70
2023/11/25 02:08:22;;;;;;;;;;;;;;;20.53;46.24;99639.56;2091678;28;1880;-70
2023/11/25 02:09:24;;;;;;;;;;;;;;;20.52;46.25;99644.56;2092710;28;1857;-70
2023/11/25 02:10:26;;;;;;;;;;;;;;;20.53;46.21;99639.56;2088590;28;1927;-70
2023/11/25 02:11:27;;;;;;;;;;;;;;;20.51;46.03;99646.72;2090412;28;1892;-70
2023/11/25 02:12:29;;;;;;;;;;;;;;;20.53;46.10;99645.31;2089355;28;1903;-70
2023/11/25 02:13:30;;;;;;;;;;;;;;;20.51;46.09;99638.09;2092867;28;1900;-70
2023/11/25 02:14:32;;;;;;;;;;;;;;;20.51;46.09;99638.09;2090748;28;1876;-71
2023/11/25 02:15:34;;;;;;;;;;;;;;;20.49;46.15;99652.41;2088965;28;2428;-70
2023/11/25 02:16:35;;;;;;;;;;;;;;;20.50;46.01;99648.16;2100507;28;1828;-70
2023/11/25 02:17:38;;;;;;;;;;;;;;;20.50;46.21;99653.16;2098852;28;1675;-71
2023/11/25 02:18:39;;;;;;;;;;;;;;;20.49;46.37;99645.94;2088462;28;2054;-71
2023/11/25 02:19:44;;;;;;;;;;;;;;;20.49;46.42;99652.41;2088082;28;2023;-70
2023/11/25 02:20:45;;;;;;;;;;;;;;;20.49;46.28;99652.41;2089519;28;1838;-70
2023/11/25 02:21:47;;;;;;;;;;;;;;;20.49;46.11;99661.03;2094473;28;2195;-70
2023/11/25 02:22:59;;;;;;;;;;;;;;;20.48;46.26;99653.84;2092856;28;2103;-71
2023/11/25 02:24:00;;;;;;;;;;;;;;;20.49;46.28;99655.28;2091170;28;1971;-70
2023/11/25 02:25:03;;;;;;;;;;;;;;;20.48;46.20;99656.72;2092798;28;1836;-70
2023/11/25 02:26:05;;;;;;;;;;;;;;;20.49;46.18;99657.44;2091287;28;1841;-70
2023/11/25 02:27:06;;;;;;;;;;;;;;;20.48;46.39;99662.47;2090973;28;1958;-70
2023/11/25 02:28:08;;;;;;;;;;;;;;;20.49;46.24;99661.03;2089263;28;2340;-71
2023/11/25 02:29:10;;;;;;;;;;;;;;;20.49;46.09;99655.28;2089774;28;1972;-70
2023/11/25 02:30:12;;;;;;;;;;;;;;;20.50;46.12;99662.53;2092167;28;2315;-70
2023/11/25 02:31:14;;;;;;;;;;;;;;;20.48;46.27;99662.47;2088311;28;1876;-70
2023/11/25 02:32:15;;;;;;;;;;;;;;;20.49;46.16;99663.91;2094243;28;1849;-70
2023/11/25 02:33:17;;;;;;;;;;;;;;;20.50;46.16;99665.41;2091511;28;1845;-70
2023/11/25 02:34:20;;;;;;;;;;;;;;;20.50;46.26;99674.03;2090488;28;1950;-70
2023/11/25 02:35:21;;;;;;;;;;;;;;;20.50;46.33;99665.41;2090707;28;1947;-70
2023/11/25 02:36:23;;;;;;;;;;;;;;;20.50;46.10;99671.16;2092995;28;1872;-70
2023/11/25 02:37:24;;;;;;;;;;;;;;;20.51;46.07;99666.84;2089938;28;1985;-70
2023/11/25 02:38:26;;;;;;;;;;;;;;;20.52;46.12;99673.31;2091742;28;2023;-70
2023/11/25 02:39:28;;;;;;;;;;;;;;;20.51;46.20;99678.34;2091052;28;2059;-70
2023/11/25 02:40:29;;;;;;;;;;;;;;;20.51;46.08;99678.34;2095008;28;2160;-70
2023/11/25 02:41:31;;;;;;;;;;;;;;;20.50;46.07;99671.16;2091414;28;1884;-70
2023/11/25 02:42:33;;;;;;;;;;;;;;;20.50;46.29;99682.66;2092953;28;2054;-70
2023/11/25 02:43:34;;;;;;;;;;;;;;;20.49;46.02;99681.16;2092735;28;1983;-70
2023/11/25 02:44:36;;;;;;;;;;;;;;;20.49;46.36;99686.91;2093608;28;1841;-70
2023/11/25 02:45:37;;;;;;;;;;;;;;;20.49;46.26;99684.03;2092356;28;2046;-70
2023/11/25 02:46:42;;;;;;;;;;;;;;;20.50;46.29;99684.78;2090819;28;1856;-71
2023/11/25 02:47:43;;;;;;;;;;;;;;;20.49;46.37;99684.03;2091647;28;1885;-71
2023/11/25 02:48:45;;;;;;;;;;;;;;;20.49;46.10;99689.78;2090929;28;1889;-70
2023/11/25 02:49:46;;;;;;;;;;;;;;;20.49;46.21;99686.91;2091047;28;1932;-70
2023/11/25 02:50:48;;;;;;;;;;;;;;;20.49;46.19;99686.91;2091422;28;1969;-70
2023/11/25 02:51:54;;;;;;;;;;;;;;;20.49;46.11;99689.06;2093245;28;2320;-70
2023/11/25 02:52:55;;;;;;;;;;;;;;;20.48;46.07;99688.34;2091957;28;1892;-70
2023/11/25 02:53:57;;;;;;;;;;;;;;;20.47;46.10;99698.38;2092383;28;1872;-70
2023/11/25 02:54:58;;;;;;;;;;;;;;;20.48;46.30;99682.59;2089576;28;1877;-70
2023/11/25 02:56:00;;;;;;;;;;;;;;;20.48;46.34;99693.38;2092159;28;1943;-71
2023/11/25 02:57:01;;;;;;;;;;;;;;;20.48;46.05;99690.50;2092583;28;1999;-70
2023/11/25 02:58:02;;;;;;;;;;;;;;;20.47;46.16;99689.75;2093520;28;1971;-70
2023/11/25 02:59:04;;;;;;;;;;;;;;;20.48;46.20;99690.50;2092678;28;1873;-71
2023/11/25 03:00:16;;;;;;;;;;;;;;;20.48;46.27;99694.09;2089327;28;1878;-70
2023/11/25 03:01:18;;;;;;;;;;;;;;;20.48;46.02;99702.00;2092685;28;1852;-70
2023/11/25 03:02:20;;;;;;;;;;;;;;;20.47;46.25;99701.25;2092127;28;1858;-70
2023/11/25 03:03:22;;;;;;;;;;;;;;;20.48;46.00;99699.13;2092173;28;2019;-70
2023/11/25 03:04:26;;;;;;;;;;;;;;;20.47;46.33;99707.00;2089760;28;1839;-70
2023/11/25 03:05:28;;;;;;;;;;;;;;;20.47;46.04;99698.38;2089740;28;1869;-70
2023/11/25 03:06:30;;;;;;;;;;;;;;;20.48;46.15;99707.75;2091806;28;1920;-70
2023/11/25 03:07:33;;;;;;;;;;;;;;;20.47;46.07;99712.75;2090963;28;1854;-71
2023/11/25 03:08:35;;;;;;;;;;;;;;;20.47;46.07;99707.00;2090465;28;1810;-70
2023/11/25 03:09:38;;;;;;;;;;;;;;;20.48;46.07;99702.72;2094129;28;1868;-70
2023/11/25 03:10:41;;;;;;;;;;;;;;;20.48;46.03;99702.72;2090118;28;1910;-70
2023/11/25 03:11:43;;;;;;;;;;;;;;;20.48;46.13;99708.47;2091128;28;1848;-70
2023/11/25 03:12:44;;;;;;;;;;;;;;;20.49;46.29;99707.06;2090407;28;2050;-70
2023/11/25 03:13:50;;;;;;;;;;;;;;;20.50;46.16;99710.66;2094236;28;1690;-70
2023/11/25 03:14:51;;;;;;;;;;;;;;;20.48;46.04;99707.75;2095111;28;1885;-70
2023/11/25 03:15:54;;;;;;;;;;;;;;;20.50;46.09;99714.28;2091042;28;2012;-70
2023/11/25 03:16:56;;;;;;;;;;;;;;;20.50;46.20;99716.41;2092361;28;1890;-70
2023/11/25 03:17:57;;;;;;;;;;;;;;;20.49;46.29;99715.69;2092641;28;2023;-70
2023/11/25 03:18:59;;;;;;;;;;;;;;;20.49;46.19;99709.94;2092645;28;1895;-70
2023/11/25 03:20:00;;;;;;;;;;;;;;;20.50;46.38;99717.16;2091735;28;1595;-70
2023/11/25 03:21:02;;;;;;;;;;;;;;;20.49;46.22;99718.56;2090318;28;2222;-70
2023/11/25 03:22:03;;;;;;;;;;;;;;;20.49;46.37;99718.56;2093329;28;1842;-70
2023/11/25 03:23:06;;;;;;;;;;;;;;;20.49;46.16;99720.69;2094320;28;1766;-70
2023/11/25 03:24:08;;;;;;;;;;;;;;;20.49;46.16;99721.44;2091072;28;2032;-70
2023/11/25 03:25:10;;;;;;;;;;;;;;;20.49;46.24;99724.31;2091806;28;1678;-71
2023/11/25 03:26:12;;;;;;;;;;;;;;;20.48;46.16;99728.59;2092054;28;1915;-70
2023/11/25 03:27:13;;;;;;;;;;;;;;;20.48;46.17;99719.97;2090246;28;1900;-71
2023/11/25 03:28:15;;;;;;;;;;;;;;;20.48;46.25;99714.22;2093873;28;1901;-70
2023/11/25 03:29:18;;;;;;;;;;;;;;;20.49;46.17;99715.69;2094175;28;1864;-71
2023/11/25 03:30:20;;;;;;;;;;;;;;;20.48;46.24;99713.50;2089464;28;1922;-70
2023/11/25 03:31:23;;;;;;;;;;;;;;;20.47;46.39;99707.00;2089927;28;1844;-70
2023/11/25 03:32:28;;;;;;;;;;;;;;;20.48;46.20;99713.50;2089618;28;1967;-70
2023/11/25 03:33:30;;;;;;;;;;;;;;;20.48;46.33;99719.97;2090761;28;2360;-71
2023/11/25 03:34:31;;;;;;;;;;;;;;;20.46;46.24;99728.53;2093477;28;1896;-70
2023/11/25 03:35:33;;;;;;;;;;;;;;;20.46;46.26;99728.53;2089845;28;1891;-71
2023/11/25 03:36:35;;;;;;;;;;;;;;;20.46;46.12;99728.53;2090205;28;2300;-70
2023/11/25 03:37:36;;;;;;;;;;;;;;;20.45;46.36;99727.06;2094855;28;1940;-70
2023/11/25 03:38:38;;;;;;;;;;;;;;;20.46;46.07;99719.19;2091281;28;1876;-70
2023/11/25 03:39:40;;;;;;;;;;;;;;;20.46;46.35;99727.81;2090677;28;1923;-70
2023/11/25 03:40:41;;;;;;;;;;;;;;;20.46;46.24;99736.44;2089606;28;1975;-70
2023/11/25 03:41:43;;;;;;;;;;;;;;;20.45;46.17;99727.06;2089539;28;1912;-70
2023/11/25 03:42:44;;;;;;;;;;;;;;;20.44;46.40;99731.34;2090706;28;1832;-70
2023/11/25 03:43:46;;;;;;;;;;;;;;;20.44;46.32;99734.22;2092288;28;1958;-70
2023/11/25 03:44:47;;;;;;;;;;;;;;;20.44;46.25;99731.34;2091047;28;1944;-70
2023/11/25 03:45:48;;;;;;;;;;;;;;;20.44;46.35;99725.59;2094126;28;1891;-70
2023/11/25 03:46:50;;;;;;;;;;;;;;;20.45;46.11;99729.22;2090317;28;2131;-70
2023/11/25 03:47:53;;;;;;;;;;;;;;;20.45;46.39;99732.81;2090512;28;1837;-70
2023/11/25 03:48:54;;;;;;;;;;;;;;;20.45;46.25;99734.97;2090045;28;1954;-70
2023/11/25 03:49:55;;;;;;;;;;;;;;;20.46;46.24;99733.56;2090235;28;1899;-71
2023/11/25 03:50:57;;;;;;;;;;;;;;;20.45;46.30;99735.69;2094530;28;1989;-70
2023/11/25 03:51:58;;;;;;;;;;;;;;;20.45;46.27;99741.44;2093956;28;1923;-70
2023/11/25 03:53:01;;;;;;;;;;;;;;;20.45;46.25;99732.81;2089561;28;1834;-70
2023/11/25 03:54:02;;;;;;;;;;;;;;;20.47;46.35;99743.66;2092329;28;2011;-71
2023/11/25 03:55:04;;;;;;;;;;;;;;;20.46;46.31;99734.28;2093217;28;1920;-70
2023/11/25 03:56:06;;;;;;;;;;;;;;;20.46;46.29;99737.16;2092086;28;2292;-70
2023/11/25 03:57:07;;;;;;;;;;;;;;;20.47;46.20;99730.00;2090333;28;1942;-70
2023/11/25 03:58:09;;;;;;;;;;;;;;;20.48;46.37;99733.63;2092729;28;1974;-70
2023/11/25 03:59:10;;;;;;;;;;;;;;;20.48;46.34;99737.22;2091706;28;1904;-70
2023/11/25 04:00:15;;;;;;;;;;;;;;;20.49;46.44;99735.06;2091649;28;1868;-70
2023/11/25 04:01:17;;;;;;;;;;;;;;;20.50;46.36;99736.53;2088843;28;1890;-70
2023/11/25 04:02:18;;;;;;;;;;;;;;;20.49;46.36;99735.81;2089253;28;1937;-71
2023/11/25 04:03:20;;;;;;;;;;;;;;;20.49;46.32;99732.94;2093726;28;1863;-70
2023/11/25 04:04:21;;;;;;;;;;;;;;;20.49;46.37;99746.59;2090346;28;1901;-70
2023/11/25 04:05:23;;;;;;;;;;;;;;;20.49;46.48;99752.34;2092300;28;1986;-70
2023/11/25 04:06:25;;;;;;;;;;;;;;;20.49;46.33;99749.47;2090725;28;1841;-71
2023/11/25 04:07:27;;;;;;;;;;;;;;;20.50;46.20;99750.91;2091001;28;1831;-70
2023/11/25 04:08:28;;;;;;;;;;;;;;;20.50;46.37;99753.78;2093467;28;1909;-70
2023/11/25 04:09:30;;;;;;;;;;;;;;;20.50;46.43;99757.41;2090280;28;1868;-70
2023/11/25 04:10:31;;;;;;;;;;;;;;;20.51;46.25;99758.16;2092195;28;1900;-70
2023/11/25 04:11:32;;;;;;;;;;;;;;;20.50;46.35;99757.41;2091685;28;1958;-70
2023/11/25 04:12:34;;;;;;;;;;;;;;;20.50;46.21;99760.28;2091352;28;1866;-70
2023/11/25 04:13:35;;;;;;;;;;;;;;;20.51;46.40;99764.63;2089919;28;2253;-70
2023/11/25 04:14:37;;;;;;;;;;;;;;;20.51;46.33;99758.16;2091665;28;1846;-70
2023/11/25 04:15:38;;;;;;;;;;;;;;;20.50;46.40;99757.41;2092184;28;1896;-71
2023/11/25 04:16:39;;;;;;;;;;;;;;;20.53;46.24;99763.22;2093624;28;1896;-70
2023/11/25 04:17:41;;;;;;;;;;;;;;;20.51;46.10;99758.88;2093419;28;1940;-70
2023/11/25 04:18:43;;;;;;;;;;;;;;;20.52;46.35;99759.59;2099864;28;1683;-70
2023/11/25 04:19:45;;;;;;;;;;;;;;;20.51;46.46;99758.88;2093942;28;2047;-70
2023/11/25 04:20:47;;;;;;;;;;;;;;;20.53;46.38;99761.09;2093085;28;1877;-70
2023/11/25 04:21:50;;;;;;;;;;;;;;;20.53;46.22;99754.59;2089416;28;1909;-70
2023/11/25 04:22:52;;;;;;;;;;;;;;;20.53;46.29;99760.34;2090454;28;1849;-70
2023/11/25 04:23:55;;;;;;;;;;;;;;;20.54;46.12;99756.06;2090046;28;1999;-70
2023/11/25 04:24:57;;;;;;;;;;;;;;;20.56;46.32;99767.63;2090256;28;1900;-70
2023/11/25 04:25:58;;;;;;;;;;;;;;;20.54;46.27;99761.81;2092065;28;1852;-70
2023/11/25 04:26:59;;;;;;;;;;;;;;;20.54;46.33;99761.81;2091470;28;1840;-70
2023/11/25 04:28:01;;;;;;;;;;;;;;;20.55;46.43;99760.38;2091850;28;1928;-70
2023/11/25 04:29:02;;;;;;;;;;;;;;;20.55;46.38;99769.78;2090542;28;1876;-70
2023/11/25 04:30:05;;;;;;;;;;;;;;;20.55;46.45;99766.13;2091039;28;1678;-70
2023/11/25 04:31:07;;;;;;;;;;;;;;;20.54;46.27;99764.69;2089343;28;1956;-70
2023/11/25 04:32:09;;;;;;;;;;;;;;;20.55;46.43;99771.88;2089200;28;1857;-70
2023/11/25 04:33:11;;;;;;;;;;;;;;;20.54;46.34;99764.69;2091526;28;1846;-71
2023/11/25 04:34:12;;;;;;;;;;;;;;;20.54;46.04;99764.69;2090790;28;1943;-70
2023/11/25 04:35:17;;;;;;;;;;;;;;;20.54;46.15;99762.53;2091142;28;1920;-70
2023/11/25 04:36:18;;;;;;;;;;;;;;;20.54;46.33;99761.81;2092060;28;1978;-70
2023/11/25 04:37:21;;;;;;;;;;;;;;;20.53;46.39;99766.84;2090170;28;1841;-70
2023/11/25 04:38:23;;;;;;;;;;;;;;;20.53;46.25;99784.09;2093903;28;1864;-70
2023/11/25 04:39:24;;;;;;;;;;;;;;;20.53;46.45;99771.84;2093590;28;1828;-70
2023/11/25 04:40:26;;;;;;;;;;;;;;;20.53;46.32;99774.72;2089554;28;1853;-69
2023/11/25 04:41:27;;;;;;;;;;;;;;;20.53;46.36;99780.47;2090362;28;1944;-70
2023/11/25 04:42:29;;;;;;;;;;;;;;;20.52;46.38;99771.09;2089656;28;1822;-70
2023/11/25 04:43:30;;;;;;;;;;;;;;;20.53;46.19;99777.59;2091168;28;1929;-70
2023/11/25 04:44:32;;;;;;;;;;;;;;;20.53;46.45;99789.13;2093582;28;1927;-70
2023/11/25 04:45:34;;;;;;;;;;;;;;;20.53;46.28;99777.59;2090738;28;1911;-70
2023/11/25 04:46:35;;;;;;;;;;;;;;;20.53;46.33;99777.59;2091888;28;1812;-70
2023/11/25 04:47:37;;;;;;;;;;;;;;;20.52;46.39;99782.59;2089751;28;2031;-71
2023/11/25 04:48:39;;;;;;;;;;;;;;;20.54;46.49;99776.19;2092447;28;2168;-71
2023/11/25 04:49:40;;;;;;;;;;;;;;;20.53;46.45;99775.47;2089453;28;1882;-70
2023/11/25 04:50:41;;;;;;;;;;;;;;;20.53;46.34;99771.84;2091524;28;1884;-70
2023/11/25 04:51:46;;;;;;;;;;;;;;;20.53;46.26;99786.22;2089507;28;1925;-70
2023/11/25 04:52:47;;;;;;;;;;;;;;;20.53;46.44;99789.13;2089076;28;1908;-70
2023/11/25 04:53:49;;;;;;;;;;;;;;;20.54;46.43;99793.44;2089981;28;2077;-70
2023/11/25 04:54:50;;;;;;;;;;;;;;;20.54;46.30;99796.31;2093931;28;1825;-70
2023/11/25 04:55:52;;;;;;;;;;;;;;;20.55;46.37;99800.66;2093880;28;1958;-70
2023/11/25 04:56:53;;;;;;;;;;;;;;;20.54;46.47;99790.56;2092458;28;1757;-70
2023/11/25 04:57:55;;;;;;;;;;;;;;;20.54;46.35;99797.03;2091722;28;1916;-70
2023/11/25 04:58:56;;;;;;;;;;;;;;;20.54;46.33;99797.03;2091793;28;1767;-70
2023/11/25 04:59:58;;;;;;;;;;;;;;;20.54;46.37;99797.03;2089072;28;1882;-70
2023/11/25 05:00:59;;;;;;;;;;;;;;;20.56;46.47;99805.00;2093990;28;2172;-70
2023/11/25 05:02:01;;;;;;;;;;;;;;;20.56;46.42;99794.25;2090191;28;1876;-70
2023/11/25 05:03:05;;;;;;;;;;;;;;;20.57;46.40;99803.63;2089173;28;1996;-70
2023/11/25 05:04:07;;;;;;;;;;;;;;;20.57;46.47;99803.63;2092776;28;1865;-70
2023/11/25 05:05:08;;;;;;;;;;;;;;;20.57;46.44;99803.63;2091496;28;2075;-71
2023/11/25 05:06:10;;;;;;;;;;;;;;;20.57;46.22;99803.63;2089692;28;1935;-70
2023/11/25 05:07:11;;;;;;;;;;;;;;;20.57;46.56;99803.63;2090820;28;1813;-71
2023/11/25 05:08:12;;;;;;;;;;;;;;;20.57;46.29;99803.63;2089168;28;1969;-70
2023/11/25 05:09:14;;;;;;;;;;;;;;;20.57;46.46;99795.75;2090878;28;1846;-70
2023/11/25 05:10:16;;;;;;;;;;;;;;;20.57;46.44;99798.63;2090357;28;1901;-70
2023/11/25 05:11:18;;;;;;;;;;;;;;;20.58;46.45;99807.97;2090958;28;1903;-70
2023/11/25 05:12:19;;;;;;;;;;;;;;;20.58;46.47;99813.72;2091738;28;1932;-70
2023/11/25 05:13:21;;;;;;;;;;;;;;;20.59;46.25;99815.19;2090300;28;1966;-70
2023/11/25 05:14:23;;;;;;;;;;;;;;;20.58;46.43;99807.97;2090342;28;1828;-71
2023/11/25 05:15:25;;;;;;;;;;;;;;;20.60;46.41;99819.53;2089051;28;1907;-70
2023/11/25 05:16:26;;;;;;;;;;;;;;;20.59;46.22;99818.06;2090846;28;1935;-70
2023/11/25 05:17:28;;;;;;;;;;;;;;;20.59;46.47;99809.44;2091028;28;1912;-70
2023/11/25 05:18:29;;;;;;;;;;;;;;;20.59;46.23;99823.81;2091729;28;1947;-70
2023/11/25 05:19:31;;;;;;;;;;;;;;;20.60;46.26;99810.91;2092047;28;2038;-70
2023/11/25 05:20:33;;;;;;;;;;;;;;;20.58;46.29;99814.44;2090414;28;1896;-70
2023/11/25 05:21:34;;;;;;;;;;;;;;;20.57;46.31;99815.88;2091496;28;1968;-71
2023/11/25 05:22:35;;;;;;;;;;;;;;;20.59;46.23;99820.94;2090795;28;1872;-70
2023/11/25 05:23:37;;;;;;;;;;;;;;;20.58;46.33;99813.72;2093393;28;2070;-70
2023/11/25 05:24:38;;;;;;;;;;;;;;;20.58;46.37;99813.72;2089036;28;2313;-70
2023/11/25 05:25:40;;;;;;;;;;;;;;;20.57;46.40;99812.25;2090446;28;1570;-70
2023/11/25 05:26:41;;;;;;;;;;;;;;;20.57;46.42;99820.88;2092365;28;1829;-70